Homer, AK

11:53 PM AKDT on April 17, 2015 (GMT -0800)
KAKHOMER5 | | Change Station
CLOSE
Current Station
Personal Weather Station
Location: Homer, AK
Elevation: 1152 ft
Nearby Weather Stations

Elev 1152 ft 59.67 °N, 151.49 °W | Updated 48 seconds ago

Light Rain
Light Rain Mist
34.9 °F
Feels Like 27 °F
N
10.0
Wind Variable Wind from North
Gusts 29.0 mph

Today
High -- | Low -- °F
--% Chance of Precip.
Yesterday
High -- | Low -- °F
Precip. -- in
6:44 AM 9:28 PM
Waning Crescent, 0% visible
Pressure 29.54 in
Visibility 6.0 miles
Clouds Overcast 1900 ft
Windchill 27 °F
Dew Point 33 °F
Humidity 93%
Rainfall 0.33 in
Snow Depth Not available.
UV 0 out of 12
Pollen Not available.
Air Quality Not available.
Flu Activity Sporadic
METAR PAHO 180653Z AUTO 06015G20KT 6SM -RA BR OVC019 05/03 A2954 RMK AO2 SLP003 P0005 T00500028 TSNO

More Conditions Fewer Conditions

Pressure 29.54 in
Visibility 6.0 miles
Clouds Overcast 1900 ft
Windchill 27 °F
Dew Point 33 °F
Humidity 93%
Rainfall 0.33 in
Snow Depth Not available.
UV 0 out of 12
Pollen Not available.
Air Quality Not available.
Flu Activity Sporadic
METAR PAHO 180653Z AUTO 06015G20KT 6SM -RA BR OVC019 05/03 A2954 RMK AO2 SLP003 P0005 T00500028 TSNO

More Conditions Fewer Conditions

10-Day Weather Forecast

Almanac

Astronomy

Apr. 17, 2015 Rise Set
Actual Time
Civil Twilight
Nautical Twilight
Astronomical Twilight
Moon
Length of Visible Light
Length of Day
Tomorrow will be .
, % of the Moon is Illuminated

Today's Extremes

State Highs State Lows

Community

WunderPhotos

Upload Photos

1,814,345 photos uploaded!

WunderBlogs® & News

Nearby

Air Quality

  Air Quality AQ Index Pollutant
Not available.

Snow Depth

Station Depth Elevation

Earthquake Activity

City Distance Mag. Time & Date
Minimum magnitude displayed is 2.5.

Coastal Water Temperatures

Place Temperature

Stations

Nearby Weather Stations

Station Location Temp. Windchill Dew Point Humidity Wind Precip. Elev Updated Type